sensor_id;sensor_type;location;lat;lon;timestamp;pressure;altitude;pressure_sealevel;temperature;humidity
16016;BME280;8112;53.592;10.184;2023-02-20T00:00:22;101706.88;;;4.69;100.00
16016;BME280;8112;53.592;10.184;2023-02-20T00:05:24;101692.63;;;4.86;100.00
16016;BME280;8112;53.592;10.184;2023-02-20T00:10:28;101673.59;;;4.81;100.00
16016;BME280;8112;53.592;10.184;2023-02-20T00:15:30;101662.19;;;4.85;100.00
16016;BME280;8112;53.592;10.184;2023-02-20T00:20:31;101654.28;;;4.88;100.00
16016;BME280;8112;53.592;10.184;2023-02-20T00:25:37;101635.16;;;4.86;100.00
16016;BME280;8112;53.592;10.184;2023-02-20T00:30:39;101614.28;;;4.84;100.00
16016;BME280;8112;53.592;10.184;2023-02-20T00:35:40;101591.91;;;4.74;100.00
16016;BME280;8112;53.592;10.184;2023-02-20T00:40:44;101591.75;;;4.82;100.00
16016;BME280;8112;53.592;10.184;2023-02-20T00:45:47;101575.91;;;4.88;100.00
16016;BME280;8112;53.592;10.184;2023-02-20T00:50:49;101568.41;;;4.73;100.00
16016;BME280;8112;53.592;10.184;2023-02-20T00:55:52;101548.22;;;4.81;100.00
16016;BME280;8112;53.592;10.184;2023-02-20T01:00:56;101537.50;;;4.93;100.00
16016;BME280;8112;53.592;10.184;2023-02-20T01:05:58;101534.94;;;4.92;100.00
16016;BME280;8112;53.592;10.184;2023-02-20T01:11:02;101551.44;;;4.92;100.00
16016;BME280;8112;53.592;10.184;2023-02-20T01:16:05;101533.16;;;4.92;100.00
16016;BME280;8112;53.592;10.184;2023-02-20T01:21:08;101534.00;;;4.94;100.00
16016;BME280;8112;53.592;10.184;2023-02-20T01:26:12;101523.50;;;4.97;100.00
16016;BME280;8112;53.592;10.184;2023-02-20T01:31:14;101519.09;;;4.99;100.00
16016;BME280;8112;53.592;10.184;2023-02-20T01:36:16;101513.72;;;5.06;100.00
16016;BME280;8112;53.592;10.184;2023-02-20T01:41:20;101514.41;;;5.14;100.00
16016;BME280;8112;53.592;10.184;2023-02-20T01:46:45;101497.13;;;5.07;100.00
16016;BME280;8112;53.592;10.184;2023-02-20T01:51:50;101483.06;;;5.14;100.00
16016;BME280;8112;53.592;10.184;2023-02-20T01:57:00;101477.66;;;5.20;100.00
16016;BME280;8112;53.592;10.184;2023-02-20T02:02:04;101445.31;;;5.24;100.00
16016;BME280;8112;53.592;10.184;2023-02-20T02:07:07;101439.28;;;5.22;100.00
16016;BME280;8112;53.592;10.184;2023-02-20T02:12:11;101414.78;;;5.26;100.00
16016;BME280;8112;53.592;10.184;2023-02-20T02:23:30;101403.28;;;5.34;100.00
16016;BME280;8112;53.592;10.184;2023-02-20T02:40:12;101399.47;;;5.46;100.00
16016;BME280;8112;53.592;10.184;2023-02-20T02:45:18;101400.41;;;5.43;100.00
16016;BME280;8112;53.592;10.184;2023-02-20T02:50:27;101386.41;;;5.46;100.00
16016;BME280;8112;53.592;10.184;2023-02-20T02:55:36;101381.28;;;5.42;100.00
16016;BME280;8112;53.592;10.184;2023-02-20T03:00:42;101348.53;;;5.27;100.00
16016;BME280;8112;53.592;10.184;2023-02-20T03:05:50;101344.41;;;5.20;100.00
16016;BME280;8112;53.592;10.184;2023-02-20T03:10:57;101353.22;;;5.16;100.00
16016;BME280;8112;53.592;10.184;2023-02-20T03:16:00;101359.25;;;5.18;100.00
16016;BME280;8112;53.592;10.184;2023-02-20T03:21:05;101369.72;;;5.18;100.00
16016;BME280;8112;53.592;10.184;2023-02-20T03:26:16;101373.78;;;5.28;100.00
16016;BME280;8112;53.592;10.184;2023-02-20T03:31:26;101355.78;;;5.18;100.00
16016;BME280;8112;53.592;10.184;2023-02-20T03:36:34;101357.19;;;5.30;100.00
16016;BME280;8112;53.592;10.184;2023-02-20T03:41:59;101358.84;;;5.34;100.00
16016;BME280;8112;53.592;10.184;2023-02-20T03:47:26;101341.41;;;5.34;100.00
16016;BME280;8112;53.592;10.184;2023-02-20T03:52:29;101339.56;;;5.38;100.00
16016;BME280;8112;53.592;10.184;2023-02-20T03:57:36;101347.19;;;5.46;100.00
16016;BME280;8112;53.592;10.184;2023-02-20T04:02:41;101359.38;;;5.47;100.00
16016;BME280;8112;53.592;10.184;2023-02-20T04:07:49;101335.78;;;5.48;100.00
16016;BME280;8112;53.592;10.184;2023-02-20T04:12:57;101343.69;;;5.47;100.00
16016;BME280;8112;53.592;10.184;2023-02-20T04:18:04;101308.19;;;5.38;100.00
16016;BME280;8112;53.592;10.184;2023-02-20T04:23:12;101305.00;;;5.28;100.00
16016;BME280;8112;53.592;10.184;2023-02-20T04:28:17;101282.38;;;5.27;100.00
16016;BME280;8112;53.592;10.184;2023-02-20T04:33:25;101270.25;;;5.24;100.00
16016;BME280;8112;53.592;10.184;2023-02-20T04:38:34;101265.00;;;5.24;100.00
16016;BME280;8112;53.592;10.184;2023-02-20T04:43:42;101270.00;;;5.34;100.00
16016;BME280;8112;53.592;10.184;2023-02-20T04:48:44;101260.56;;;5.28;100.00
16016;BME280;8112;53.592;10.184;2023-02-20T04:53:46;101233.66;;;5.24;100.00
16016;BME280;8112;53.592;10.184;2023-02-20T04:58:50;101251.78;;;5.31;100.00
16016;BME280;8112;53.592;10.184;2023-02-20T05:03:55;101248.22;;;5.33;100.00
16016;BME280;8112;53.592;10.184;2023-02-20T05:08:57;101263.97;;;5.32;100.00
16016;BME280;8112;53.592;10.184;2023-02-20T05:14:00;101247.19;;;5.39;100.00
16016;BME280;8112;53.592;10.184;2023-02-20T05:19:02;101235.91;;;5.37;100.00
16016;BME280;8112;53.592;10.184;2023-02-20T05:24:04;101222.31;;;5.55;100.00
16016;BME280;8112;53.592;10.184;2023-02-20T05:29:08;101212.75;;;5.54;100.00
16016;BME280;8112;53.592;10.184;2023-02-20T05:34:11;101206.53;;;5.59;100.00
16016;BME280;8112;53.592;10.184;2023-02-20T05:39:14;101194.16;;;5.64;100.00
16016;BME280;8112;53.592;10.184;2023-02-20T05:44:17;101173.78;;;5.74;100.00
16016;BME280;8112;53.592;10.184;2023-02-20T05:49:19;101166.81;;;5.74;100.00
16016;BME280;8112;53.592;10.184;2023-02-20T05:54:21;101143.53;;;5.66;100.00
16016;BME280;8112;53.592;10.184;2023-02-20T05:59:24;101148.28;;;5.82;100.00
16016;BME280;8112;53.592;10.184;2023-02-20T06:04:26;101136.13;;;5.79;100.00
16016;BME280;8112;53.592;10.184;2023-02-20T06:09:29;101126.81;;;5.70;100.00
16016;BME280;8112;53.592;10.184;2023-02-20T06:14:35;101115.44;;;5.73;100.00
16016;BME280;8112;53.592;10.184;2023-02-20T06:19:37;101113.63;;;5.75;100.00
16016;BME280;8112;53.592;10.184;2023-02-20T06:24:43;101108.53;;;5.70;100.00
16016;BME280;8112;53.592;10.184;2023-02-20T06:29:47;101115.03;;;5.85;100.00
16016;BME280;8112;53.592;10.184;2023-02-20T06:34:49;101123.50;;;5.92;100.00
16016;BME280;8112;53.592;10.184;2023-02-20T06:39:51;101123.56;;;5.91;100.00
16016;BME280;8112;53.592;10.184;2023-02-20T06:44:55;101131.34;;;5.92;100.00
16016;BME280;8112;53.592;10.184;2023-02-20T06:49:56;101115.50;;;5.97;100.00
16016;BME280;8112;53.592;10.184;2023-02-20T06:54:58;101126.66;;;6.04;100.00
16016;BME280;8112;53.592;10.184;2023-02-20T07:00:03;101128.97;;;6.13;100.00
16016;BME280;8112;53.592;10.184;2023-02-20T07:05:06;101110.09;;;6.28;100.00
16016;BME280;8112;53.592;10.184;2023-02-20T07:10:08;101114.75;;;6.46;100.00
16016;BME280;8112;53.592;10.184;2023-02-20T07:15:12;101119.09;;;6.47;100.00
16016;BME280;8112;53.592;10.184;2023-02-20T07:20:14;101115.06;;;6.36;100.00
16016;BME280;8112;53.592;10.184;2023-02-20T07:25:16;101136.28;;;6.54;100.00
16016;BME280;8112;53.592;10.184;2023-02-20T07:30:25;101116.25;;;6.53;100.00
16016;BME280;8112;53.592;10.184;2023-02-20T07:35:28;101131.75;;;6.59;100.00
16016;BME280;8112;53.592;10.184;2023-02-20T07:40:38;101115.91;;;6.62;100.00
16016;BME280;8112;53.592;10.184;2023-02-20T07:45:41;101115.81;;;6.65;100.00
16016;BME280;8112;53.592;10.184;2023-02-20T07:50:43;101100.13;;;6.64;100.00
16016;BME280;8112;53.592;10.184;2023-02-20T07:55:46;101099.44;;;6.59;100.00
16016;BME280;8112;53.592;10.184;2023-02-20T08:00:49;101087.66;;;6.70;100.00
16016;BME280;8112;53.592;10.184;2023-02-20T08:05:53;101090.63;;;6.85;100.00
16016;BME280;8112;53.592;10.184;2023-02-20T08:10:55;101081.06;;;6.84;100.00
16016;BME280;8112;53.592;10.184;2023-02-20T08:15:59;101080.69;;;6.71;100.00
16016;BME280;8112;53.592;10.184;2023-02-20T08:21:02;101079.56;;;6.77;100.00
16016;BME280;8112;53.592;10.184;2023-02-20T08:26:04;101074.97;;;6.83;100.00
16016;BME280;8112;53.592;10.184;2023-02-20T08:31:08;101066.75;;;6.93;100.00
16016;BME280;8112;53.592;10.184;2023-02-20T08:36:10;101056.63;;;6.83;100.00
16016;BME280;8112;53.592;10.184;2023-02-20T08:41:14;101046.38;;;6.77;100.00
16016;BME280;8112;53.592;10.184;2023-02-20T08:46:18;101066.13;;;6.86;100.00
16016;BME280;8112;53.592;10.184;2023-02-20T08:51:20;101040.50;;;6.94;100.00
16016;BME280;8112;53.592;10.184;2023-02-20T08:56:22;101045.56;;;6.99;100.00
16016;BME280;8112;53.592;10.184;2023-02-20T09:01:25;101036.66;;;7.03;100.00
16016;BME280;8112;53.592;10.184;2023-02-20T09:06:28;101023.19;;;6.90;100.00
16016;BME280;8112;53.592;10.184;2023-02-20T09:11:30;101005.75;;;6.89;100.00
16016;BME280;8112;53.592;10.184;2023-02-20T09:16:34;100998.81;;;6.88;100.00
16016;BME280;8112;53.592;10.184;2023-02-20T09:21:36;101004.31;;;6.82;100.00
16016;BME280;8112;53.592;10.184;2023-02-20T09:26:38;101012.22;;;6.80;100.00
16016;BME280;8112;53.592;10.184;2023-02-20T09:31:42;101013.78;;;6.84;100.00
16016;BME280;8112;53.592;10.184;2023-02-20T09:36:44;101026.59;;;6.92;100.00
16016;BME280;8112;53.592;10.184;2023-02-20T09:42:01;101025.81;;;6.90;100.00
16016;BME280;8112;53.592;10.184;2023-02-20T09:47:25;101009.28;;;6.88;100.00
16016;BME280;8112;53.592;10.184;2023-02-20T09:52:29;101006.44;;;6.94;100.00
16016;BME280;8112;53.592;10.184;2023-02-20T09:57:35;101010.56;;;7.00;100.00
16016;BME280;8112;53.592;10.184;2023-02-20T10:02:43;101014.06;;;7.01;100.00
16016;BME280;8112;53.592;10.184;2023-02-20T10:07:48;101000.56;;;7.10;100.00
16016;BME280;8112;53.592;10.184;2023-02-20T10:12:58;101018.09;;;7.09;100.00
16016;BME280;8112;53.592;10.184;2023-02-20T10:18:17;101018.19;;;7.28;100.00
16016;BME280;8112;53.592;10.184;2023-02-20T10:23:29;101019.63;;;7.15;100.00
16016;BME280;8112;53.592;10.184;2023-02-20T10:28:36;101011.66;;;7.17;100.00
16016;BME280;8112;53.592;10.184;2023-02-20T10:33:43;101017.09;;;7.34;100.00
16016;BME280;8112;53.592;10.184;2023-02-20T10:38:51;101028.34;;;7.59;100.00
16016;BME280;8112;53.592;10.184;2023-02-20T10:44:00;101010.63;;;7.64;100.00
16016;BME280;8112;53.592;10.184;2023-02-20T10:49:08;101008.69;;;7.90;100.00
16016;BME280;8112;53.592;10.184;2023-02-20T10:54:16;101005.75;;;8.17;100.00
16016;BME280;8112;53.592;10.184;2023-02-20T10:59:22;101022.72;;;8.28;100.00
16016;BME280;8112;53.592;10.184;2023-02-20T11:04:31;101018.13;;;8.34;100.00
16016;BME280;8112;53.592;10.184;2023-02-20T11:09:35;101004.25;;;8.51;100.00
16016;BME280;8112;53.592;10.184;2023-02-20T11:14:41;100990.72;;;8.39;100.00
16016;BME280;8112;53.592;10.184;2023-02-20T11:19:49;100998.94;;;8.52;100.00
16016;BME280;8112;53.592;10.184;2023-02-20T11:24:53;100987.97;;;8.62;100.00
16016;BME280;8112;53.592;10.184;2023-02-20T11:30:33;100972.94;;;8.65;100.00
16016;BME280;8112;53.592;10.184;2023-02-20T11:35:38;100961.28;;;8.71;100.00
16016;BME280;8112;53.592;10.184;2023-02-20T11:40:41;100960.69;;;8.83;100.00
16016;BME280;8112;53.592;10.184;2023-02-20T11:45:43;100965.59;;;9.09;100.00
16016;BME280;8112;53.592;10.184;2023-02-20T11:50:48;100924.13;;;8.96;100.00
16016;BME280;8112;53.592;10.184;2023-02-20T11:56:07;100921.13;;;9.04;100.00
16016;BME280;8112;53.592;10.184;2023-02-20T12:01:28;100895.38;;;9.11;100.00
16016;BME280;8112;53.592;10.184;2023-02-20T12:06:40;100896.03;;;9.16;100.00
16016;BME280;8112;53.592;10.184;2023-02-20T12:11:42;100898.88;;;9.29;100.00
16016;BME280;8112;53.592;10.184;2023-02-20T12:17:04;100877.75;;;9.31;100.00
16016;BME280;8112;53.592;10.184;2023-02-20T12:22:17;100875.38;;;9.26;100.00
16016;BME280;8112;53.592;10.184;2023-02-20T12:27:43;100870.72;;;9.31;100.00
16016;BME280;8112;53.592;10.184;2023-02-20T12:32:57;100856.34;;;9.21;100.00
16016;BME280;8112;53.592;10.184;2023-02-20T12:38:21;100852.00;;;9.20;100.00
16016;BME280;8112;53.592;10.184;2023-02-20T12:43:36;100846.66;;;9.39;100.00
16016;BME280;8112;53.592;10.184;2023-02-20T12:48:49;100843.84;;;9.42;100.00
16016;BME280;8112;53.592;10.184;2023-02-20T12:54:05;100844.97;;;9.38;100.00
16016;BME280;8112;53.592;10.184;2023-02-20T12:59:21;100842.94;;;9.43;100.00
16016;BME280;8112;53.592;10.184;2023-02-20T13:04:29;100830.72;;;9.42;100.00
16016;BME280;8112;53.592;10.184;2023-02-20T13:09:38;100827.56;;;9.51;100.00
16016;BME280;8112;53.592;10.184;2023-02-20T13:15:02;100838.56;;;9.60;100.00
16016;BME280;8112;53.592;10.184;2023-02-20T13:20:16;100842.75;;;9.46;100.00
16016;BME280;8112;53.592;10.184;2023-02-20T13:25:41;100831.25;;;9.65;100.00
16016;BME280;8112;53.592;10.184;2023-02-20T13:30:43;100833.47;;;9.57;100.00
16016;BME280;8112;53.592;10.184;2023-02-20T13:35:50;100827.78;;;9.64;100.00
16016;BME280;8112;53.592;10.184;2023-02-20T13:41:15;100830.72;;;9.58;100.00
16016;BME280;8112;53.592;10.184;2023-02-20T13:46:17;100831.94;;;9.52;100.00
16016;BME280;8112;53.592;10.184;2023-02-20T13:51:32;100857.50;;;9.66;100.00
16016;BME280;8112;53.592;10.184;2023-02-20T13:56:45;100813.00;;;9.62;100.00
16016;BME280;8112;53.592;10.184;2023-02-20T14:01:56;100822.59;;;9.63;100.00
16016;BME280;8112;53.592;10.184;2023-02-20T14:06:58;100826.66;;;9.52;100.00
16016;BME280;8112;53.592;10.184;2023-02-20T14:12:07;100824.44;;;9.45;100.00
16016;BME280;8112;53.592;10.184;2023-02-20T14:17:14;100818.44;;;9.59;100.00
16016;BME280;8112;53.592;10.184;2023-02-20T14:22:26;100829.19;;;9.54;100.00
16016;BME280;8112;53.592;10.184;2023-02-20T14:27:31;100808.00;;;9.57;100.00
16016;BME280;8112;53.592;10.184;2023-02-20T14:32:34;100834.22;;;9.59;100.00
16016;BME280;8112;53.592;10.184;2023-02-20T14:37:39;100844.81;;;9.57;100.00
16016;BME280;8112;53.592;10.184;2023-02-20T14:42:47;100832.53;;;9.58;100.00
16016;BME280;8112;53.592;10.184;2023-02-20T14:47:49;100851.59;;;9.27;100.00
16016;BME280;8112;53.592;10.184;2023-02-20T14:53:03;100849.00;;;8.92;100.00
16016;BME280;8112;53.592;10.184;2023-02-20T14:58:09;100845.69;;;8.89;100.00
16016;BME280;8112;53.592;10.184;2023-02-20T15:03:19;100861.69;;;8.84;100.00
16016;BME280;8112;53.592;10.184;2023-02-20T15:08:23;100855.03;;;8.94;100.00
16016;BME280;8112;53.592;10.184;2023-02-20T15:13:34;100859.84;;;8.86;100.00
16016;BME280;8112;53.592;10.184;2023-02-20T15:18:38;100863.75;;;8.77;100.00
16016;BME280;8112;53.592;10.184;2023-02-20T15:23:45;100874.88;;;8.82;100.00
16016;BME280;8112;53.592;10.184;2023-02-20T15:29:08;100866.00;;;8.85;100.00
16016;BME280;8112;53.592;10.184;2023-02-20T15:34:12;100875.34;;;8.73;100.00
16016;BME280;8112;53.592;10.184;2023-02-20T15:39:16;100887.84;;;8.68;100.00
16016;BME280;8112;53.592;10.184;2023-02-20T15:44:21;100890.06;;;8.58;100.00
16016;BME280;8112;53.592;10.184;2023-02-20T15:49:23;100903.19;;;8.58;100.00
16016;BME280;8112;53.592;10.184;2023-02-20T15:54:26;100900.56;;;8.58;100.00
16016;BME280;8112;53.592;10.184;2023-02-20T15:59:29;100873.78;;;8.51;100.00
16016;BME280;8112;53.592;10.184;2023-02-20T16:04:31;100907.31;;;8.64;100.00
16016;BME280;8112;53.592;10.184;2023-02-20T16:09:33;100898.75;;;8.60;100.00
16016;BME280;8112;53.592;10.184;2023-02-20T16:14:37;100910.63;;;8.50;100.00
16016;BME280;8112;53.592;10.184;2023-02-20T16:19:39;100913.88;;;8.55;100.00
16016;BME280;8112;53.592;10.184;2023-02-20T16:24:41;100927.41;;;8.46;100.00
16016;BME280;8112;53.592;10.184;2023-02-20T16:29:45;100926.06;;;8.56;100.00
16016;BME280;8112;53.592;10.184;2023-02-20T16:34:47;100935.97;;;8.51;100.00
16016;BME280;8112;53.592;10.184;2023-02-20T16:39:50;100937.78;;;8.49;100.00
16016;BME280;8112;53.592;10.184;2023-02-20T16:44:54;100941.31;;;8.48;100.00
16016;BME280;8112;53.592;10.184;2023-02-20T16:49:58;100951.66;;;8.52;100.00
16016;BME280;8112;53.592;10.184;2023-02-20T16:55:06;100948.34;;;8.47;100.00
16016;BME280;8112;53.592;10.184;2023-02-20T17:00:15;100950.03;;;8.48;100.00
16016;BME280;8112;53.592;10.184;2023-02-20T17:05:20;100956.50;;;8.41;100.00
16016;BME280;8112;53.592;10.184;2023-02-20T17:10:23;100961.25;;;8.53;100.00
16016;BME280;8112;53.592;10.184;2023-02-20T17:15:29;100971.41;;;8.40;100.00
16016;BME280;8112;53.592;10.184;2023-02-20T17:20:31;100989.53;;;8.47;100.00
16016;BME280;8112;53.592;10.184;2023-02-20T17:25:33;100991.38;;;8.45;100.00
16016;BME280;8112;53.592;10.184;2023-02-20T17:30:37;101000.28;;;8.40;100.00
16016;BME280;8112;53.592;10.184;2023-02-20T17:35:38;100998.31;;;8.46;100.00
16016;BME280;8112;53.592;10.184;2023-02-20T17:40:40;101009.53;;;8.49;100.00
16016;BME280;8112;53.592;10.184;2023-02-20T17:45:44;101005.19;;;8.48;100.00
16016;BME280;8112;53.592;10.184;2023-02-20T17:50:46;100998.19;;;8.49;100.00
16016;BME280;8112;53.592;10.184;2023-02-20T17:55:48;101003.84;;;8.39;100.00
16016;BME280;8112;53.592;10.184;2023-02-20T18:00:52;100998.47;;;8.43;100.00
16016;BME280;8112;53.592;10.184;2023-02-20T18:05:54;100999.16;;;8.46;100.00
16016;BME280;8112;53.592;10.184;2023-02-20T18:10:57;101010.94;;;8.37;100.00
16016;BME280;8112;53.592;10.184;2023-02-20T18:16:00;100998.59;;;8.39;100.00
16016;BME280;8112;53.592;10.184;2023-02-20T18:21:02;101023.50;;;8.51;100.00
16016;BME280;8112;53.592;10.184;2023-02-20T18:26:04;101018.63;;;8.42;100.00
16016;BME280;8112;53.592;10.184;2023-02-20T18:31:09;101002.53;;;8.50;100.00
16016;BME280;8112;53.592;10.184;2023-02-20T18:36:11;101007.19;;;8.43;100.00
16016;BME280;8112;53.592;10.184;2023-02-20T18:41:14;101010.53;;;8.47;100.00
16016;BME280;8112;53.592;10.184;2023-02-20T18:46:26;101011.59;;;8.43;100.00
16016;BME280;8112;53.592;10.184;2023-02-20T18:51:30;101012.44;;;8.43;100.00
16016;BME280;8112;53.592;10.184;2023-02-20T18:56:32;101012.13;;;8.51;100.00
16016;BME280;8112;53.592;10.184;2023-02-20T19:01:39;101014.88;;;8.48;100.00
16016;BME280;8112;53.592;10.184;2023-02-20T19:06:41;101021.88;;;8.47;100.00
16016;BME280;8112;53.592;10.184;2023-02-20T19:11:47;101015.78;;;8.47;100.00
16016;BME280;8112;53.592;10.184;2023-02-20T19:16:53;101014.91;;;8.46;100.00
16016;BME280;8112;53.592;10.184;2023-02-20T19:21:55;101023.00;;;8.41;100.00
16016;BME280;8112;53.592;10.184;2023-02-20T19:26:58;101018.47;;;8.45;100.00
16016;BME280;8112;53.592;10.184;2023-02-20T19:32:03;101015.69;;;8.50;100.00
16016;BME280;8112;53.592;10.184;2023-02-20T19:37:05;101014.91;;;8.46;100.00
16016;BME280;8112;53.592;10.184;2023-02-20T19:42:07;101014.22;;;8.43;100.00
16016;BME280;8112;53.592;10.184;2023-02-20T19:47:11;101016.34;;;8.34;100.00
16016;BME280;8112;53.592;10.184;2023-02-20T19:52:16;101014.78;;;8.49;100.00
16016;BME280;8112;53.592;10.184;2023-02-20T19:57:18;101030.38;;;8.54;100.00
16016;BME280;8112;53.592;10.184;2023-02-20T20:02:21;101026.81;;;8.55;100.00
16016;BME280;8112;53.592;10.184;2023-02-20T20:07:23;101013.00;;;8.51;100.00
16016;BME280;8112;53.592;10.184;2023-02-20T20:12:27;101019.94;;;8.52;100.00
16016;BME280;8112;53.592;10.184;2023-02-20T20:17:51;101018.78;;;8.58;100.00
16016;BME280;8112;53.592;10.184;2023-02-20T20:22:55;101024.28;;;8.53;100.00
16016;BME280;8112;53.592;10.184;2023-02-20T20:27:57;101029.38;;;8.57;100.00
16016;BME280;8112;53.592;10.184;2023-02-20T20:33:03;101031.00;;;8.59;100.00
16016;BME280;8112;53.592;10.184;2023-02-20T20:38:05;101025.06;;;8.55;100.00
16016;BME280;8112;53.592;10.184;2023-02-20T20:43:08;101026.03;;;8.53;100.00
16016;BME280;8112;53.592;10.184;2023-02-20T20:48:15;101037.19;;;8.58;100.00
16016;BME280;8112;53.592;10.184;2023-02-20T20:53:17;101036.00;;;8.65;100.00
16016;BME280;8112;53.592;10.184;2023-02-20T20:58:20;101034.28;;;8.64;100.00
16016;BME280;8112;53.592;10.184;2023-02-20T21:03:24;101051.31;;;8.55;100.00
16016;BME280;8112;53.592;10.184;2023-02-20T21:08:26;101030.94;;;8.61;100.00
16016;BME280;8112;53.592;10.184;2023-02-20T21:13:29;101028.59;;;8.54;100.00
16016;BME280;8112;53.592;10.184;2023-02-20T21:18:32;101009.00;;;8.62;100.00
16016;BME280;8112;53.592;10.184;2023-02-20T21:23:34;101033.13;;;8.51;100.00
16016;BME280;8112;53.592;10.184;2023-02-20T21:28:36;101034.28;;;8.64;100.00
16016;BME280;8112;53.592;10.184;2023-02-20T21:33:40;101030.88;;;8.62;100.00
16016;BME280;8112;53.592;10.184;2023-02-20T21:38:42;101031.28;;;8.53;100.00
16016;BME280;8112;53.592;10.184;2023-02-20T21:43:46;101015.53;;;8.53;100.00
16016;BME280;8112;53.592;10.184;2023-02-20T21:49:07;101015.25;;;8.59;100.00
16016;BME280;8112;53.592;10.184;2023-02-20T21:54:09;101017.75;;;8.62;100.00
16016;BME280;8112;53.592;10.184;2023-02-20T21:59:11;101023.69;;;8.66;100.00
16016;BME280;8112;53.592;10.184;2023-02-20T22:04:14;101027.75;;;8.54;100.00
16016;BME280;8112;53.592;10.184;2023-02-20T22:09:15;101016.97;;;8.60;100.00
16016;BME280;8112;53.592;10.184;2023-02-20T22:14:34;101013.81;;;8.52;100.00
16016;BME280;8112;53.592;10.184;2023-02-20T22:19:55;101027.59;;;8.57;100.00
16016;BME280;8112;53.592;10.184;2023-02-20T22:25:15;101022.63;;;8.51;100.00
16016;BME280;8112;53.592;10.184;2023-02-20T22:30:34;101017.94;;;8.58;100.00
16016;BME280;8112;53.592;10.184;2023-02-20T22:35:55;101032.84;;;8.57;100.00
16016;BME280;8112;53.592;10.184;2023-02-20T22:41:17;101028.81;;;8.50;100.00
16016;BME280;8112;53.592;10.184;2023-02-20T22:46:37;101032.00;;;8.57;100.00
16016;BME280;8112;53.592;10.184;2023-02-20T22:51:57;101032.31;;;8.49;100.00
16016;BME280;8112;53.592;10.184;2023-02-20T22:57:17;101040.81;;;8.55;100.00
16016;BME280;8112;53.592;10.184;2023-02-20T23:02:37;101049.75;;;8.51;100.00
16016;BME280;8112;53.592;10.184;2023-02-20T23:07:59;101050.59;;;8.52;100.00
16016;BME280;8112;53.592;10.184;2023-02-20T23:13:18;101046.28;;;8.49;100.00
16016;BME280;8112;53.592;10.184;2023-02-20T23:18:37;101051.00;;;8.43;100.00
16016;BME280;8112;53.592;10.184;2023-02-20T23:24:01;101062.16;;;8.48;100.00
16016;BME280;8112;53.592;10.184;2023-02-20T23:29:20;101047.31;;;8.47;100.00
16016;BME280;8112;53.592;10.184;2023-02-20T23:34:39;101053.41;;;8.47;100.00
16016;BME280;8112;53.592;10.184;2023-02-20T23:40:00;101063.84;;;8.49;100.00
16016;BME280;8112;53.592;10.184;2023-02-20T23:45:19;101067.75;;;8.40;100.00
16016;BME280;8112;53.592;10.184;2023-02-20T23:50:38;101054.81;;;8.35;100.00
16016;BME280;8112;53.592;10.184;2023-02-20T23:56:02;101068.50;;;8.42;100.00
